Asheville, NC (28801)

6:57 PM EDT on August 30, 2015 (GMT -0400)
Upper East End - Beaucatcher | | Change Station
CLOSE
Current Station
Personal Weather Station
Location: Asheville, NC
Elevation: 2313 ft
Nearby Weather Stations

Elev 2313 ft 35.59 °N, 82.54 °W | Updated 0 second ago

Overcast
Overcast
67.1 °F
Feels Like 67.1 °F
N
0.0
Wind Variable Wind from North
Gusts 0.0 mph

Today
High -- | Low -- °F
--% Chance of Precip.
Yesterday
High -- | Low -- °F
Precip. -- in
7:00 AM 8:00 PM
Full, 98% visible
Pressure 30.13 in
Visibility 7.0 miles
Clouds Few 3700 ft
Overcast 11000 ft
Dew Point 63 °F
Humidity 88%
Rainfall 0.00 in
Snow Depth Not available.
UV 0 out of 12
Pollen 5.20 out of 12
Air Quality Not available.
Flu Activity Not available.
METAR KAVL 302254Z 16004KT 7SM -RA FEW037 OVC110 21/16 A3019 RMK AO2 RAE02B29 SLP202 P0001 T02060161
Pressure 30.13 in
Visibility 7.0 miles
Clouds Few 3700 ft
Overcast 11000 ft
Dew Point 63 °F
Humidity 88%
Rainfall 0.00 in
Snow Depth Not available.
UV 0 out of 12
Pollen 5.20 out of 12
Air Quality Not available.
Flu Activity Not available.
METAR KAVL 302254Z 16004KT 7SM -RA FEW037 OVC110 21/16 A3019 RMK AO2 RAE02B29 SLP202 P0001 T02060161

10-Day Weather Forecast

×

Almanac

Astronomy

Aug. 30, 2015 Rise Set
Actual Time
Civil Twilight
Nautical Twilight
Astronomical Twilight
Moon
Length of Visible Light
Length of Day
Tomorrow will be .
, % of the Moon is Illuminated

Today's Extremes

State Highs State Lows

Community

WunderPhotos

Upload Photos

1,851,075 photos uploaded!

WunderBlogs® & News

Nearby

Air Quality

  Air Quality AQ Index Pollutant
Not available.

Snow Depth

Station Depth Elevation

Earthquake Activity

City Distance Mag. Time & Date
Minimum magnitude displayed is 2.5.

Coastal Water Temperatures

Place Temperature

Stations

Nearby Weather Stations

Station Location Temp. Windchill Dew Point Humidity Wind Precip. Elev Updated Type